プノンペン の空港の天気 - METARとTAF

プノンペン国際空港 ( VDPP / PNH ) - カンボジア プノンペン
飛行場実況気象(Metar)
観測時間06/15 03:30 ICT (06/14 20:30 UTC)
風向・風速南南西 3m/s
視程9000m
天気現象
全天の4割程度の雲 雲底高度 520m
全天の8割程度の雲 雲底高度 1220m
気温27℃
湿度94%
気圧1006hPa
METARVDPP 142030Z 21005KT 9000 SCT017 BKN040 27/26 Q1006
過去の天気等 Google飛行場航空写真 Wunderground天気予報

過去48時間のMETAR

飛行場予報(TAF)
発表時間: 6/15 00:00 ICT (6/14 17:00 UTC)
予報対象時間: 15日1時 ICT ~ 15日19時 ICT
風向・風速南西 5m/s
視程10km以上
全天の4割程度の雲 雲底高度 520m
15日2時 ICT ~ 15日6時 ICT に一時的に
全天の4割程度の雲 雲底高度 460m
少しの積乱雲 雲底高度 520m
全天の8割程度の雲 雲底高度 1220m
TAF VDPP 141700Z 1418/1512 22010KT 9999 SCT017
TEMPO 1419/1423 SCT015 FEW017CB BKN040